createdAt,value
2019-04-21T00:00:52.384Z,9.90
2019-04-21T00:03:23.619Z,10.00
2019-04-21T00:06:12.071Z,10.00
2019-04-21T00:08:37.602Z,9.90
2019-04-21T00:11:09.698Z,10.00
2019-04-21T00:13:33.184Z,10.00
2019-04-21T00:15:53.772Z,9.90
2019-04-21T00:18:23.387Z,9.90
2019-04-21T00:20:55.177Z,9.80
2019-04-21T00:23:41.298Z,9.70
2019-04-21T00:26:07.109Z,9.80
2019-04-21T00:28:49.060Z,9.80
2019-04-21T00:31:12.653Z,9.70
2019-04-21T00:33:29.999Z,9.60
2019-04-21T00:36:02.065Z,9.60
2019-04-21T00:38:57.443Z,9.50
2019-04-21T00:41:23.522Z,9.50
2019-04-21T00:43:43.407Z,9.50
2019-04-21T00:46:04.735Z,9.40
2019-04-21T00:48:48.613Z,9.40
2019-04-21T00:51:35.578Z,9.40
2019-04-21T00:53:59.558Z,9.40
2019-04-21T00:56:21.986Z,9.40
2019-04-21T00:58:57.780Z,9.40
2019-04-21T01:01:22.306Z,9.30
2019-04-21T01:03:51.968Z,9.30
2019-04-21T01:06:22.705Z,9.30
2019-04-21T01:08:45.722Z,9.20
2019-04-21T01:11:23.958Z,9.20
2019-04-21T01:14:02.409Z,9.20
2019-04-21T01:16:31.587Z,9.20
2019-04-21T01:18:49.315Z,9.20
2019-04-21T01:21:01.080Z,9.20
2019-04-21T01:23:31.758Z,9.20
2019-04-21T01:26:14.507Z,9.10
2019-04-21T01:28:51.116Z,9.10
2019-04-21T01:31:17.453Z,9.10
2019-04-21T01:33:50.371Z,9.10
2019-04-21T01:36:18.007Z,9.10
2019-04-21T01:38:58.295Z,9.10
2019-04-21T01:41:25.468Z,9.10
2019-04-21T01:43:49.362Z,9.00
2019-04-21T01:46:24.556Z,8.90
2019-04-21T01:48:42.806Z,8.90
2019-04-21T01:51:20.934Z,8.80
2019-04-21T01:54:03.520Z,8.90
2019-04-21T01:56:55.665Z,8.90
2019-04-21T01:59:25.998Z,8.80
2019-04-21T02:02:01.700Z,8.80
2019-04-21T02:04:37.380Z,8.70
2019-04-21T02:07:03.244Z,8.70
2019-04-21T02:09:38.390Z,8.70
2019-04-21T02:12:09.748Z,8.70
2019-04-21T02:14:46.272Z,8.80
2019-04-21T02:17:09.952Z,8.70
2019-04-21T02:19:31.327Z,8.70
2019-04-21T02:21:59.562Z,8.70
2019-04-21T02:24:45.136Z,8.70
2019-04-21T02:27:12.787Z,8.70
2019-04-21T02:29:41.602Z,8.60
2019-04-21T02:39:57.289Z,8.60
2019-04-21T02:42:20.117Z,8.60
2019-04-21T02:44:57.301Z,8.60
2019-04-21T02:47:27.403Z,8.50
2019-04-21T02:50:00.403Z,8.50
2019-04-21T02:55:17.532Z,8.50
2019-04-21T03:00:00.010Z,8.40
2019-04-21T03:05:20.438Z,8.40
2019-04-21T03:07:52.072Z,8.40
2019-04-21T03:10:22.294Z,8.40
2019-04-21T03:17:48.770Z,8.30
2019-04-21T03:20:19.024Z,8.30
2019-04-21T03:37:42.462Z,8.00
2019-04-21T03:42:49.009Z,8.00
2019-04-21T03:45:32.713Z,8.00
2019-04-21T03:52:56.154Z,7.90
2019-04-21T03:55:48.809Z,8.00
2019-04-21T04:03:42.154Z,8.10
2019-04-21T04:09:14.341Z,8.10
2019-04-21T04:16:20.203Z,7.90
2019-04-21T04:18:52.794Z,7.90
2019-04-21T04:21:28.858Z,7.70
2019-04-21T04:26:26.030Z,7.90
2019-04-21T04:28:54.267Z,7.90
2019-04-21T04:33:59.913Z,7.90
2019-04-21T04:36:33.391Z,7.90
2019-04-21T04:39:01.669Z,8.00
2019-04-21T04:44:37.255Z,8.00
2019-04-21T04:47:01.949Z,8.00
2019-04-21T04:49:43.443Z,8.00
2019-04-21T04:54:31.615Z,8.10
2019-04-21T04:57:00.993Z,8.00
2019-04-21T05:02:00.346Z,8.00
2019-04-21T05:04:23.844Z,8.00
2019-04-21T05:07:06.622Z,8.10
2019-04-21T05:09:22.458Z,8.10
2019-04-21T05:11:48.735Z,8.10
2019-04-21T05:14:23.015Z,8.10
2019-04-21T05:22:15.611Z,8.30
2019-04-21T05:24:20.828Z,8.10
2019-04-21T05:26:49.071Z,8.20
2019-04-21T05:29:13.017Z,8.20
2019-04-21T05:32:04.964Z,8.20
2019-04-21T05:34:31.589Z,8.30
2019-04-21T05:37:18.783Z,8.30
2019-04-21T05:39:41.984Z,8.40
2019-04-21T05:42:05.107Z,8.50
2019-04-21T05:47:29.563Z,8.60
2019-04-21T05:49:50.000Z,8.70
2019-04-21T05:52:21.320Z,8.80
2019-04-21T05:54:57.498Z,8.90
2019-04-21T05:57:25.435Z,9.00
2019-04-21T06:00:10.338Z,8.90
2019-04-21T06:02:24.321Z,9.10
2019-04-21T06:05:05.812Z,9.20
2019-04-21T06:12:28.593Z,9.90
2019-04-21T06:15:03.755Z,10.10
2019-04-21T06:17:30.315Z,10.20
2019-04-21T06:22:23.468Z,10.10
2019-04-21T06:25:21.237Z,10.10
2019-04-21T06:27:34.342Z,10.00
2019-04-21T06:30:06.572Z,10.10
2019-04-21T06:35:20.764Z,10.40
2019-04-21T06:40:33.699Z,10.50
2019-04-21T06:42:32.498Z,10.60
2019-04-21T06:45:12.286Z,10.80
2019-04-21T06:50:10.317Z,11.10
2019-04-21T06:52:52.198Z,11.10
2019-04-21T06:55:12.491Z,11.20
2019-04-21T07:00:06.196Z,11.50
2019-04-21T07:02:43.796Z,11.60
2019-04-21T07:05:07.357Z,11.80
2019-04-21T07:07:40.513Z,11.90
2019-04-21T07:10:10.739Z,12.20
2019-04-21T07:12:37.063Z,12.50
2019-04-21T07:15:06.091Z,12.70
2019-04-21T07:17:35.803Z,13.00
2019-04-21T07:25:09.283Z,13.00
2019-04-21T07:27:44.434Z,13.20
2019-04-21T07:30:24.312Z,13.30
2019-04-21T07:32:44.215Z,13.30
2019-04-21T07:35:11.834Z,13.50
2019-04-21T07:37:54.079Z,13.70
2019-04-21T07:40:07.750Z,13.80
2019-04-21T07:42:32.785Z,14.10
2019-04-21T07:45:04.574Z,14.00
2019-04-21T07:47:57.523Z,13.80
2019-04-21T07:50:38.266Z,13.80
2019-04-21T07:53:25.892Z,13.90
2019-04-21T07:58:14.562Z,14.40
2019-04-21T08:00:52.648Z,14.50
2019-04-21T08:03:13.842Z,14.80
2019-04-21T08:05:47.098Z,14.50
2019-04-21T08:08:14.219Z,14.40
2019-04-21T08:10:47.444Z,14.70
2019-04-21T08:13:25.179Z,14.80
2019-04-21T08:15:51.051Z,15.20
2019-04-21T08:18:25.490Z,15.30
2019-04-21T08:20:49.169Z,15.20
2019-04-21T08:23:20.426Z,15.40
2019-04-21T08:28:21.328Z,15.90
2019-04-21T08:30:47.719Z,15.90
2019-04-21T08:33:26.294Z,16.00
2019-04-21T08:38:21.901Z,16.00
2019-04-21T08:40:49.477Z,16.00
2019-04-21T08:43:29.036Z,16.00
2019-04-21T08:48:19.474Z,16.50
2019-04-21T08:50:54.639Z,16.50
2019-04-21T08:53:20.839Z,16.40
2019-04-21T08:55:58.710Z,16.20
2019-04-21T08:58:34.341Z,16.40
2019-04-21T09:01:02.413Z,16.80
2019-04-21T09:03:51.672Z,16.60
2019-04-21T09:06:27.974Z,16.60
2019-04-21T09:08:53.323Z,16.60
2019-04-21T09:11:16.332Z,16.80
2019-04-21T09:13:47.799Z,16.80
2019-04-21T09:16:15.362Z,17.00
2019-04-21T09:18:45.717Z,17.10
2019-04-21T09:21:25.541Z,17.30
2019-04-21T09:23:52.355Z,17.30
2019-04-21T09:26:25.242Z,17.40
2019-04-21T09:28:48.209Z,17.60
2019-04-21T09:31:05.311Z,17.60
2019-04-21T09:33:39.092Z,17.70
2019-04-21T09:36:07.027Z,17.80
2019-04-21T09:38:38.064Z,17.90
2019-04-21T09:41:06.760Z,18.10
2019-04-21T09:43:42.067Z,18.10
2019-04-21T09:46:06.157Z,18.30
2019-04-21T09:48:49.097Z,18.40
2019-04-21T09:51:06.550Z,18.40
2019-04-21T09:53:38.777Z,18.20
2019-04-21T09:56:10.512Z,18.20
2019-04-21T09:58:40.762Z,18.20
2019-04-21T10:01:15.988Z,18.20
2019-04-21T10:03:42.764Z,18.40
2019-04-21T10:06:06.725Z,18.50
2019-04-21T10:08:36.393Z,18.70
2019-04-21T10:11:05.362Z,18.80
2019-04-21T10:13:34.016Z,18.90
2019-04-21T10:16:21.583Z,18.90
2019-04-21T10:18:50.475Z,19.10
2019-04-21T10:21:19.800Z,18.90
2019-04-21T10:23:50.010Z,19.00
2019-04-21T10:26:18.807Z,19.10
2019-04-21T10:28:48.948Z,19.20
2019-04-21T10:31:18.515Z,19.10
2019-04-21T10:33:48.338Z,19.10
2019-04-21T10:36:17.176Z,18.70
2019-04-21T10:38:50.364Z,18.50
2019-04-21T10:41:16.999Z,18.70
2019-04-21T10:43:47.037Z,18.90
2019-04-21T10:46:16.929Z,19.20
2019-04-21T10:48:46.343Z,19.30
2019-04-21T10:51:14.979Z,19.50
2019-04-21T10:53:47.701Z,19.50
2019-04-21T10:56:23.925Z,19.30
2019-04-21T10:58:46.358Z,19.40
2019-04-21T11:01:16.878Z,19.50
2019-04-21T11:03:55.900Z,19.70
2019-04-21T11:06:24.596Z,19.60
2019-04-21T11:08:55.615Z,19.60
2019-04-21T11:11:23.903Z,19.70
2019-04-21T11:13:52.666Z,19.80
2019-04-21T11:16:21.630Z,19.80
2019-04-21T11:18:51.502Z,19.70
2019-04-21T11:21:20.841Z,19.80
2019-04-21T11:23:50.132Z,19.80
2019-04-21T11:26:19.887Z,19.80
2019-04-21T11:28:48.975Z,19.90
2019-04-21T11:31:23.064Z,19.90
2019-04-21T11:33:51.641Z,20.00
2019-04-21T11:36:21.487Z,19.90
2019-04-21T11:39:09.919Z,20.00
2019-04-21T11:41:27.951Z,19.80
2019-04-21T11:43:57.225Z,19.80
2019-04-21T11:46:26.800Z,19.70
2019-04-21T11:48:55.600Z,19.60
2019-04-21T11:51:24.886Z,19.70
2019-04-21T11:53:54.875Z,19.80
2019-04-21T11:56:24.984Z,19.80
2019-04-21T11:58:54.067Z,19.90
2019-04-21T12:01:25.630Z,19.90
2019-04-21T12:03:55.626Z,19.90
2019-04-21T12:06:32.147Z,19.90
2019-04-21T12:08:57.665Z,19.90
2019-04-21T12:11:25.223Z,20.10
2019-04-21T12:13:56.254Z,20.10
2019-04-21T12:16:25.187Z,20.30
2019-04-21T12:18:54.673Z,20.30
2019-04-21T12:21:23.435Z,20.30
2019-04-21T12:23:52.415Z,20.30
2019-04-21T12:26:22.148Z,20.10
2019-04-21T12:28:51.936Z,20.20
2019-04-21T12:31:25.496Z,20.30
2019-04-21T12:33:58.626Z,20.20
2019-04-21T12:36:27.544Z,20.30
2019-04-21T12:39:00.068Z,20.40
2019-04-21T12:41:26.871Z,20.50
2019-04-21T12:43:55.324Z,20.60
2019-04-21T12:46:23.738Z,20.70
2019-04-21T12:48:52.171Z,20.70
2019-04-21T12:51:21.929Z,20.70
2019-04-21T12:53:51.775Z,20.70
2019-04-21T12:56:20.730Z,20.70
2019-04-21T12:58:49.155Z,20.70
2019-04-21T13:01:18.840Z,20.70
2019-04-21T13:03:48.034Z,20.70
2019-04-21T13:06:16.791Z,20.60
2019-04-21T13:08:53.533Z,20.70
2019-04-21T13:11:15.390Z,20.50
2019-04-21T13:13:43.915Z,20.50
2019-04-21T13:16:13.495Z,20.60
2019-04-21T13:18:42.501Z,20.70
2019-04-21T13:21:12.052Z,20.80
2019-04-21T13:23:41.245Z,20.70
2019-04-21T13:26:10.123Z,20.70
2019-04-21T13:28:40.467Z,20.80
2019-04-21T13:31:09.103Z,20.90
2019-04-21T13:33:37.775Z,20.90
2019-04-21T13:36:07.666Z,21.10
2019-04-21T13:38:50.480Z,21.20
2019-04-21T13:41:22.692Z,21.10
2019-04-21T13:43:41.352Z,21.10
2019-04-21T13:46:10.246Z,21.00
2019-04-21T13:48:40.204Z,21.00
2019-04-21T13:51:09.108Z,20.90
2019-04-21T13:53:37.935Z,20.90
2019-04-21T13:56:06.890Z,21.10
2019-04-21T13:58:35.444Z,21.50
2019-04-21T14:01:05.508Z,21.60
2019-04-21T14:03:35.493Z,21.90
2019-04-21T14:06:04.616Z,22.30
2019-04-21T14:08:33.533Z,22.40
2019-04-21T14:11:05.042Z,22.20
2019-04-21T14:13:34.238Z,21.90
2019-04-21T14:16:04.036Z,21.80
2019-04-21T14:18:32.917Z,22.20
2019-04-21T14:21:03.118Z,22.00
2019-04-21T14:23:38.108Z,22.20
2019-04-21T14:26:03.877Z,22.60
2019-04-21T14:28:33.547Z,22.70
2019-04-21T14:31:02.350Z,22.80
2019-04-21T14:33:31.927Z,22.80
2019-04-21T14:36:01.041Z,22.60
2019-04-21T14:38:29.611Z,22.90
2019-04-21T14:40:58.204Z,23.10
2019-04-21T14:43:27.718Z,23.30
2019-04-21T14:46:07.257Z,22.80
2019-04-21T14:48:54.961Z,23.10
2019-04-21T14:51:25.256Z,23.30
2019-04-21T14:53:56.305Z,23.40
2019-04-21T14:56:27.057Z,23.30
2019-04-21T14:58:57.636Z,23.20
2019-04-21T15:01:26.221Z,23.20
2019-04-21T15:03:55.455Z,23.10
2019-04-21T15:06:25.351Z,23.00
2019-04-21T15:08:55.404Z,23.40
2019-04-21T15:11:24.241Z,23.70
2019-04-21T15:13:53.650Z,23.90
2019-04-21T15:16:22.821Z,23.90
2019-04-21T15:18:52.693Z,23.80
2019-04-21T15:21:21.625Z,23.80
2019-04-21T15:23:50.713Z,23.30
2019-04-21T15:26:20.073Z,23.40
2019-04-21T15:28:48.940Z,23.40
2019-04-21T15:31:26.690Z,22.90
2019-04-21T15:33:47.731Z,23.00
2019-04-21T15:36:16.696Z,23.20
2019-04-21T15:38:45.776Z,23.20
2019-04-21T15:41:14.553Z,23.30
2019-04-21T15:43:44.566Z,23.10
2019-04-21T15:46:13.404Z,23.20
2019-04-21T15:48:41.917Z,23.60
2019-04-21T15:51:11.121Z,23.80
2019-04-21T15:53:41.776Z,23.90
2019-04-21T15:56:22.658Z,24.20
2019-04-21T15:59:12.583Z,24.60
2019-04-21T16:01:46.406Z,25.20
2019-04-21T16:04:15.081Z,26.10
2019-04-21T16:06:43.710Z,26.90
2019-04-21T16:09:19.846Z,27.60
2019-04-21T16:11:43.947Z,27.90
2019-04-21T16:14:12.606Z,28.30
2019-04-21T16:16:43.266Z,28.60
2019-04-21T16:19:12.292Z,28.10
2019-04-21T16:21:44.401Z,26.20
2019-04-21T16:24:12.241Z,25.10
2019-04-21T16:26:42.561Z,24.40
2019-04-21T16:29:11.358Z,23.60
2019-04-21T16:31:40.376Z,22.90
2019-04-21T16:34:09.305Z,22.70
2019-04-21T16:36:38.071Z,22.40
2019-04-21T16:39:07.772Z,21.70
2019-04-21T16:41:36.211Z,21.70
2019-04-21T16:44:05.169Z,21.40
2019-04-21T16:46:33.814Z,21.30
2019-04-21T16:49:02.242Z,21.40
2019-04-21T16:51:31.796Z,21.40
2019-04-21T16:54:02.051Z,21.40
2019-04-21T16:56:39.522Z,21.40
2019-04-21T16:59:10.543Z,21.30
2019-04-21T17:01:40.536Z,21.30
2019-04-21T17:04:10.654Z,21.20
2019-04-21T17:06:40.784Z,21.20
2019-04-21T17:09:10.564Z,21.10
2019-04-21T17:11:41.944Z,21.10
2019-04-21T17:14:28.369Z,21.00
2019-04-21T17:17:03.832Z,20.90
2019-04-21T17:19:19.059Z,20.80
2019-04-21T17:21:41.654Z,20.60
2019-04-21T17:24:10.618Z,20.60
2019-04-21T17:26:41.289Z,20.80
2019-04-21T17:29:10.423Z,20.80
2019-04-21T17:31:39.323Z,20.60
2019-04-21T17:34:13.752Z,20.60
2019-04-21T17:36:39.284Z,20.10
2019-04-21T17:39:08.947Z,20.10
2019-04-21T17:41:54.146Z,19.80
2019-04-21T17:44:08.752Z,19.60
2019-04-21T17:46:46.052Z,19.50
2019-04-21T17:49:08.618Z,19.60
2019-04-21T17:51:55.110Z,19.60
2019-04-21T17:54:32.197Z,19.50
2019-04-21T17:57:20.299Z,19.30
2019-04-21T18:02:12.618Z,19.00
2019-04-21T18:04:49.345Z,19.00
2019-04-21T18:07:08.458Z,19.00
2019-04-21T18:09:51.844Z,19.00
2019-04-21T18:12:16.668Z,19.00
2019-04-21T18:14:28.472Z,18.90
2019-04-21T18:16:58.299Z,18.70
2019-04-21T18:19:31.235Z,18.50
2019-04-21T18:22:05.524Z,18.50
2019-04-21T18:24:44.676Z,18.50
2019-04-21T18:27:07.800Z,18.50
2019-04-21T18:29:34.515Z,18.40
2019-04-21T18:32:02.962Z,18.30
2019-04-21T18:34:44.287Z,18.10
2019-04-21T18:37:14.812Z,18.00
2019-04-21T18:39:52.666Z,17.90
2019-04-21T18:42:31.227Z,18.00
2019-04-21T18:45:28.210Z,17.90
2019-04-21T18:47:51.086Z,17.70
2019-04-21T18:50:31.591Z,17.70
2019-04-21T18:53:12.046Z,17.50
2019-04-21T18:55:39.118Z,17.30
2019-04-21T18:58:03.320Z,17.30
2019-04-21T19:00:36.688Z,16.80
2019-04-21T19:03:09.641Z,16.80
2019-04-21T19:05:41.170Z,16.70
2019-04-21T19:08:19.084Z,16.70
2019-04-21T19:10:55.464Z,16.50
2019-04-21T19:13:38.078Z,16.50
2019-04-21T19:16:17.222Z,16.60
2019-04-21T19:20:54.050Z,16.50
2019-04-21T19:23:36.348Z,16.60
2019-04-21T19:26:10.424Z,16.30
2019-04-21T19:28:26.291Z,16.30
2019-04-21T19:31:05.010Z,16.40
2019-04-21T19:33:26.627Z,16.30
2019-04-21T19:35:39.617Z,16.00
2019-04-21T19:38:10.885Z,15.80
2019-04-21T19:40:52.231Z,15.80
2019-04-21T19:43:31.625Z,15.80
2019-04-21T19:45:54.110Z,15.70
2019-04-21T19:48:25.256Z,15.60
2019-04-21T19:50:57.177Z,15.60
2019-04-21T19:53:25.331Z,15.80
2019-04-21T19:55:40.493Z,15.80
2019-04-21T19:58:10.645Z,15.60
2019-04-21T20:00:40.246Z,15.60
2019-04-21T20:03:10.355Z,15.50
2019-04-21T20:05:47.601Z,15.30
2019-04-21T20:08:23.692Z,15.20
2019-04-21T20:11:01.270Z,15.20
2019-04-21T20:13:40.548Z,15.30
2019-04-21T20:16:01.406Z,15.30
2019-04-21T20:18:21.231Z,15.10
2019-04-21T20:20:41.110Z,15.00
2019-04-21T20:23:18.088Z,15.00
2019-04-21T20:25:47.425Z,14.90
2019-04-21T20:28:21.330Z,14.90
2019-04-21T20:30:56.047Z,14.90
2019-04-21T20:36:02.198Z,15.00
2019-04-21T20:38:19.341Z,14.70
2019-04-21T20:40:52.683Z,14.70
2019-04-21T20:43:33.726Z,14.70
2019-04-21T20:48:20.011Z,14.50
2019-04-21T20:51:00.314Z,14.50
2019-04-21T20:53:25.938Z,14.60
2019-04-21T20:55:52.726Z,14.50
2019-04-21T20:58:30.877Z,14.40
2019-04-21T21:01:23.425Z,14.50
2019-04-21T21:03:29.125Z,14.60
2019-04-21T21:05:52.998Z,14.60
2019-04-21T21:08:35.726Z,14.70
2019-04-21T21:11:23.129Z,14.40
2019-04-21T21:13:55.324Z,14.40
2019-04-21T21:16:35.100Z,14.50
2019-04-21T21:19:08.090Z,14.50
2019-04-21T21:21:20.626Z,14.60
2019-04-21T21:23:53.532Z,14.50
2019-04-21T21:26:25.785Z,14.50
2019-04-21T21:28:48.656Z,14.60
2019-04-21T21:31:25.196Z,14.50
2019-04-21T21:34:03.396Z,14.60
2019-04-21T21:36:26.615Z,14.70
2019-04-21T21:38:54.587Z,14.70
2019-04-21T21:41:16.582Z,14.50
2019-04-21T21:43:39.245Z,14.60
2019-04-21T21:46:24.899Z,14.40
2019-04-21T21:48:51.765Z,14.30
2019-04-21T21:51:17.563Z,14.30
2019-04-21T21:53:40.179Z,14.40
2019-04-21T21:56:08.978Z,14.40
2019-04-21T21:58:42.341Z,14.50
2019-04-21T22:01:11.722Z,14.60
2019-04-21T22:03:46.253Z,14.60
2019-04-21T22:06:16.376Z,14.50
2019-04-21T22:08:42.634Z,14.50
2019-04-21T22:11:11.401Z,14.50
2019-04-21T22:13:47.602Z,14.40
2019-04-21T22:16:14.054Z,14.20
2019-04-21T22:19:03.604Z,14.30
2019-04-21T22:21:26.119Z,14.30
2019-04-21T22:23:51.517Z,14.30
2019-04-21T22:26:11.452Z,14.50
2019-04-21T22:28:40.129Z,14.50
2019-04-21T22:31:14.795Z,14.40
2019-04-21T22:33:46.716Z,14.30
2019-04-21T22:36:20.974Z,14.30
2019-04-21T22:38:54.886Z,14.00
2019-04-21T22:41:18.998Z,14.20
2019-04-21T22:43:43.763Z,14.30
2019-04-21T22:46:12.340Z,14.20
2019-04-21T22:48:40.925Z,14.20
2019-04-21T22:51:20.477Z,14.10
2019-04-21T22:53:44.769Z,14.10
2019-04-21T22:56:17.645Z,14.20
2019-04-21T22:58:44.051Z,13.90
2019-04-21T23:01:11.043Z,13.90
2019-04-21T23:03:47.032Z,14.00
2019-04-21T23:06:19.524Z,14.00
2019-04-21T23:08:42.386Z,14.10
2019-04-21T23:11:12.578Z,14.00
2019-04-21T23:13:40.421Z,14.10
2019-04-21T23:16:09.867Z,14.10
2019-04-21T23:18:55.499Z,14.10
2019-04-21T23:21:19.508Z,13.90
2019-04-21T23:24:01.858Z,13.80
2019-04-21T23:26:26.711Z,13.90
2019-04-21T23:29:03.042Z,13.80
2019-04-21T23:31:30.470Z,13.80
2019-04-21T23:33:42.024Z,13.90
2019-04-21T23:36:16.550Z,13.90
2019-04-21T23:38:44.893Z,13.80
2019-04-21T23:41:11.381Z,13.80
2019-04-21T23:43:40.559Z,13.70
2019-04-21T23:46:18.786Z,13.60
2019-04-21T23:48:57.909Z,13.60
2019-04-21T23:51:23.310Z,13.50
2019-04-21T23:53:41.483Z,13.50
2019-04-21T23:56:13.417Z,13.40
2019-04-21T23:58:44.918Z,13.40
